Finnhawk — OJNL — position and weather

sailwx.info

Track history (hours):
 
Tides and Currents Weather Stations Pressure Air Temp Water Temp Dewpoint Dewpoint Depression Visibility Wind Speed Wind Dir Waves Ship Positions

Finnhawk

Last reported at 2017-Feb-15 18:33 UTC. Time now 2017-Feb-22 20:00 UTC.
Position N 59°55' E 022°32'.

Length 163 m; draft 5.2 m.

Type: Ship. MMSI: 230007000.

Date/timePositionNaut miles runAvg speedWind from/ knotsBaromVisibWave heightAir tempDewpointWater temp
2017-Feb-15 18:33N 59°55' E 022°32'1413.0
2017-Feb-15 17:31N 59°47' E 022°54'33211.5
2017-Feb-14 12:32N 55°44' E 015°49'1818.1
2017-Feb-14 11:33N 55°36' E 015°21'1716.8
2017-Feb-14 10:33N 55°27' E 014°55'1716.7
2017-Feb-14 09:33N 55°17' E 014°32'1818.4
2017-Feb-14 08:33N 55°03' E 014°12'1918.8
2017-Feb-14 07:33N 54°57' E 013°41'1919.3
2017-Feb-14 06:33N 54°50' E 013°09'1817.8
2017-Feb-14 05:33N 54°43' E 012°40'1615.7
2017-Feb-14 04:33N 54°34' E 012°19'1312.9
2017-Feb-14 03:33N 54°23' E 012°08'1110.6
2017-Feb-14 02:33N 54°12' E 012°05'4 3.8
2017-Feb-14 01:32N 54°08' E 012°06'0 0.0
2017-Feb-14 00:32N 54°08' E 012°06'0 0.0
2017-Feb-13 23:29N 54°08' E 012°06'0 0.0
2017-Feb-13 22:32N 54°08' E 012°06'0 0.0
2017-Feb-13 21:32N 54°08' E 012°06'0 0.0
2017-Feb-13 20:29N 54°08' E 012°06'0 0.0
2017-Feb-13 19:32N 54°08' E 012°06'0 0.0
2017-Feb-13 18:29N 54°08' E 012°06'0 0.0
2017-Feb-13 16:32N 54°08' E 012°06'0 0.0
2017-Feb-13 14:08N 54°08' E 012°06'0 0.0
2017-Feb-13 13:14N 54°08' E 012°06'0 0.0
2017-Feb-13 12:32N 54°08' E 012°06'0 0.0
2017-Feb-13 11:26N 54°08' E 012°06'0 0.0
2017-Feb-13 10:20N 54°08' E 012°06'0 0.0
2017-Feb-13 09:32N 54°08' E 012°06'0 0.0
2017-Feb-13 08:26N 54°08' E 012°06'0 0.0
2017-Feb-13 07:23N 54°08' E 012°06'0 0.0
2017-Feb-13 06:23N 54°08' E 012°06'0 0.0
2017-Feb-13 03:29N 54°08' E 012°06'0 0.0
2017-Feb-12 16:25N 54°08' E 012°06'0 0.2
2017-Feb-12 15:33N 54°09' E 012°06'0 0.0
2017-Feb-12 14:30N 54°09' E 012°06'0 0.0
2017-Feb-12 13:30N 54°09' E 012°06'0 0.0
2017-Feb-12 11:27N 54°09' E 012°06'0 0.1
2017-Feb-12 05:32N 54°09' E 012°06'4 3.8
2017-Feb-12 04:33N 54°13' E 012°05'4 3.5
2017-Feb-12 03:25N 54°16' E 012°01'1213.5
2017-Feb-12 02:33N 54°27' E 012°10'1313.1
2017-Feb-12 01:33N 54°38' E 012°19'1513.4
2017-Feb-12 00:27N 54°47' E 012°41'3213.2
2017-Feb-11 22:03N 54°58' E 013°32'713.2
2017-Feb-11 21:33N 55°00' E 013°43'1413.6
2017-Feb-11 20:33N 55°05' E 014°05'1313.0
2017-Feb-11 19:34N 55°15' E 014°20'1312.9
2017-Feb-11 18:34N 55°25' E 014°34'1312.9
2017-Feb-11 17:33N 55°31' E 014°54'1313.3
2017-Feb-11 16:33N 55°39' E 015°13'34713.9
2017-Feb-10 15:31N 59°40' E 022°59'9 0.8
2017-Feb-10 04:21N 59°49' E 022°57'7 6.1
2017-Feb-10 03:13N 59°43' E 023°04'9516.5
2017-Feb-09 21:28N 58°41' E 020°45'25716.1
2017-Feb-09 05:33N 55°36' E 015°17'1716.6
2017-Feb-09 04:34N 55°27' E 014°52'1616.5
2017-Feb-09 03:34N 55°16' E 014°31'1716.9
2017-Feb-09 02:33N 55°04' E 014°11'1716.5
2017-Feb-09 01:33N 54°57' E 013°45'3316.8
2017-Feb-08 23:34N 54°46' E 012°50'1716.7
2017-Feb-08 22:31N 54°37' E 012°24'1816.4
2017-Feb-08 21:25N 54°22' E 012°06'1113.1
2017-Feb-08 20:33N 54°11' E 012°06'2 1.2
2017-Feb-08 18:33N 54°08' E 012°06'0 0.0
2017-Feb-08 17:33N 54°08' E 012°06'0 0.0
2017-Feb-08 16:06N 54°08' E 012°06'0 0.0
2017-Feb-08 14:15N 54°08' E 012°06'0 0.0
2017-Feb-08 12:12N 54°08' E 012°06'0 0.0
2017-Feb-08 10:27N 54°08' E 012°06'1 1.5
2017-Feb-08 09:33N 54°10' E 012°06'1110.7
2017-Feb-08 08:34N 54°20' E 012°03'1717.5
2017-Feb-08 07:34N 54°36' E 012°16'5618.7
2017-Feb-08 04:34N 55°00' E 013°44'1918.5
2017-Feb-08 03:33N 55°10' E 014°12'1919.0
2017-Feb-08 02:34N 55°24' E 014°33'1918.8
2017-Feb-08 01:33N 55°35' E 015°00'35916.3
2017-Feb-07 03:33N 59°45' E 023°02'5 5.3
2017-Feb-07 02:33N 59°49' E 022°57'0 0.0
2017-Feb-06 22:13N 59°49' E 022°57'0 0.0
2017-Feb-06 20:31N 59°49' E 022°57'0 0.0
2017-Feb-06 19:19N 59°49' E 022°57'0 0.0
2017-Feb-06 18:19N 59°49' E 022°57'0 0.0
2017-Feb-06 12:13N 59°49' E 022°57'0 0.0
2017-Feb-06 10:14N 59°49' E 022°57'8 5.0
2017-Feb-06 08:33N 59°42' E 023°04'  
Track history (hours):
 
Tides and Currents Weather Stations Pressure Air Temp Water Temp Dewpoint Dewpoint Depression Visibility Wind Speed Wind Dir Waves Ship Positions

Finnhawk

Last reported at 2017-Feb-15 18:33 UTC. Time now 2017-Feb-22 20:00 UTC.
Position N 59°55' E 022°32'.

Length 163 m; draft 5.2 m.

Type: Ship. MMSI: 230007000.

Date/timePositionNaut miles runAvg speedWind from/ knotsBaromVisibWave heightAir tempDewpointWater temp
2017-Feb-15 18:33N 59°55' E 022°32'1413.0
2017-Feb-15 17:31N 59°47' E 022°54'33211.5
2017-Feb-14 12:32N 55°44' E 015°49'1818.1
2017-Feb-14 11:33N 55°36' E 015°21'1716.8
2017-Feb-14 10:33N 55°27' E 014°55'1716.7
2017-Feb-14 09:33N 55°17' E 014°32'1818.4
2017-Feb-14 08:33N 55°03' E 014°12'1918.8
2017-Feb-14 07:33N 54°57' E 013°41'1919.3
2017-Feb-14 06:33N 54°50' E 013°09'1817.8
2017-Feb-14 05:33N 54°43' E 012°40'1615.7
2017-Feb-14 04:33N 54°34' E 012°19'1312.9
2017-Feb-14 03:33N 54°23' E 012°08'1110.6
2017-Feb-14 02:33N 54°12' E 012°05'4 3.8
2017-Feb-14 01:32N 54°08' E 012°06'0 0.0
2017-Feb-14 00:32N 54°08' E 012°06'0 0.0
2017-Feb-13 23:29N 54°08' E 012°06'0 0.0
2017-Feb-13 22:32N 54°08' E 012°06'0 0.0
2017-Feb-13 21:32N 54°08' E 012°06'0 0.0
2017-Feb-13 20:29N 54°08' E 012°06'0 0.0
2017-Feb-13 19:32N 54°08' E 012°06'0 0.0
2017-Feb-13 18:29N 54°08' E 012°06'0 0.0
2017-Feb-13 16:32N 54°08' E 012°06'0 0.0
2017-Feb-13 14:08N 54°08' E 012°06'0 0.0
2017-Feb-13 13:14N 54°08' E 012°06'0 0.0
2017-Feb-13 12:32N 54°08' E 012°06'0 0.0
2017-Feb-13 11:26N 54°08' E 012°06'0 0.0
2017-Feb-13 10:20N 54°08' E 012°06'0 0.0
2017-Feb-13 09:32N 54°08' E 012°06'0 0.0
2017-Feb-13 08:26N 54°08' E 012°06'0 0.0
2017-Feb-13 07:23N 54°08' E 012°06'0 0.0
2017-Feb-13 06:23N 54°08' E 012°06'0 0.0
2017-Feb-13 03:29N 54°08' E 012°06'0 0.0
2017-Feb-12 16:25N 54°08' E 012°06'0 0.2
2017-Feb-12 15:33N 54°09' E 012°06'0 0.0
2017-Feb-12 14:30N 54°09' E 012°06'0 0.0
2017-Feb-12 13:30N 54°09' E 012°06'0 0.0
2017-Feb-12 11:27N 54°09' E 012°06'0 0.1
2017-Feb-12 05:32N 54°09' E 012°06'4 3.8
2017-Feb-12 04:33N 54°13' E 012°05'4 3.5
2017-Feb-12 03:25N 54°16' E 012°01'1213.5
2017-Feb-12 02:33N 54°27' E 012°10'1313.1
2017-Feb-12 01:33N 54°38' E 012°19'1513.4
2017-Feb-12 00:27N 54°47' E 012°41'3213.2
2017-Feb-11 22:03N 54°58' E 013°32'713.2
2017-Feb-11 21:33N 55°00' E 013°43'1413.6
2017-Feb-11 20:33N 55°05' E 014°05'1313.0
2017-Feb-11 19:34N 55°15' E 014°20'1312.9
2017-Feb-11 18:34N 55°25' E 014°34'1312.9
2017-Feb-11 17:33N 55°31' E 014°54'1313.3
2017-Feb-11 16:33N 55°39' E 015°13'34713.9
2017-Feb-10 15:31N 59°40' E 022°59'9 0.8
2017-Feb-10 04:21N 59°49' E 022°57'7 6.1
2017-Feb-10 03:13N 59°43' E 023°04'9516.5
2017-Feb-09 21:28N 58°41' E 020°45'25716.1
2017-Feb-09 05:33N 55°36' E 015°17'1716.6
2017-Feb-09 04:34N 55°27' E 014°52'1616.5
2017-Feb-09 03:34N 55°16' E 014°31'1716.9
2017-Feb-09 02:33N 55°04' E 014°11'1716.5
2017-Feb-09 01:33N 54°57' E 013°45'3316.8
2017-Feb-08 23:34N 54°46' E 012°50'1716.7
2017-Feb-08 22:31N 54°37' E 012°24'1816.4
2017-Feb-08 21:25N 54°22' E 012°06'1113.1
2017-Feb-08 20:33N 54°11' E 012°06'2 1.2
2017-Feb-08 18:33N 54°08' E 012°06'0 0.0
2017-Feb-08 17:33N 54°08' E 012°06'0 0.0
2017-Feb-08 16:06N 54°08' E 012°06'0 0.0
2017-Feb-08 14:15N 54°08' E 012°06'0 0.0
2017-Feb-08 12:12N 54°08' E 012°06'0 0.0
2017-Feb-08 10:27N 54°08' E 012°06'1 1.5
2017-Feb-08 09:33N 54°10' E 012°06'1110.7
2017-Feb-08 08:34N 54°20' E 012°03'1717.5
2017-Feb-08 07:34N 54°36' E 012°16'5618.7
2017-Feb-08 04:34N 55°00' E 013°44'1918.5
2017-Feb-08 03:33N 55°10' E 014°12'1919.0
2017-Feb-08 02:34N 55°24' E 014°33'1918.8
2017-Feb-08 01:33N 55°35' E 015°00'35916.3
2017-Feb-07 03:33N 59°45' E 023°02'5 5.3
2017-Feb-07 02:33N 59°49' E 022°57'0 0.0
2017-Feb-06 22:13N 59°49' E 022°57'0 0.0
2017-Feb-06 20:31N 59°49' E 022°57'0 0.0
2017-Feb-06 19:19N 59°49' E 022°57'0 0.0
2017-Feb-06 18:19N 59°49' E 022°57'0 0.0
2017-Feb-06 12:13N 59°49' E 022°57'0 0.0
2017-Feb-06 10:14N 59°49' E 022°57'8 5.0
2017-Feb-06 08:33N 59°42' E 023°04'  

Dump ship's entire track history